createdAt,value
2022-09-16T00:03:03.117Z,91.80
2022-09-16T00:05:53.892Z,91.80
2022-09-16T00:08:44.429Z,91.80
2022-09-16T00:11:35.588Z,91.80
2022-09-16T00:14:24.246Z,91.80
2022-09-16T00:17:12.157Z,91.80
2022-09-16T00:20:00.780Z,91.80
2022-09-16T00:22:49.241Z,91.80
2022-09-16T00:25:37.909Z,91.80
2022-09-16T00:28:27.799Z,91.80
2022-09-16T00:31:16.072Z,91.80
2022-09-16T00:34:04.462Z,91.80
2022-09-16T00:36:53.044Z,91.80
2022-09-16T00:39:41.071Z,91.80
2022-09-16T00:42:29.674Z,91.80
2022-09-16T00:45:21.039Z,91.80
2022-09-16T00:48:14.201Z,91.80
2022-09-16T00:51:06.803Z,91.80
2022-09-16T00:54:00.253Z,91.80
2022-09-16T00:56:51.542Z,91.80
2022-09-16T00:59:43.221Z,91.80
2022-09-16T01:02:33.661Z,91.80
2022-09-16T01:05:26.046Z,91.80
2022-09-16T01:08:14.349Z,91.80
2022-09-16T01:11:02.900Z,91.80
2022-09-16T01:13:52.496Z,91.80
2022-09-16T01:16:46.117Z,91.80
2022-09-16T01:19:49.740Z,91.80
2022-09-16T01:22:54.037Z,91.80
2022-09-16T01:25:55.146Z,91.80
2022-09-16T01:29:00.233Z,91.80
2022-09-16T01:31:59.302Z,91.80
2022-09-16T01:34:55.279Z,91.80
2022-09-16T01:37:52.618Z,91.80
2022-09-16T01:40:50.139Z,91.80
2022-09-16T01:43:54.681Z,91.80
2022-09-16T01:46:48.926Z,91.80
2022-09-16T01:49:44.959Z,91.80
2022-09-16T01:52:43.018Z,91.80
2022-09-16T01:55:36.346Z,91.80
2022-09-16T01:58:29.639Z,91.80
2022-09-16T02:01:24.595Z,91.80
2022-09-16T02:04:18.048Z,91.70
2022-09-16T02:07:10.928Z,91.70
2022-09-16T02:10:07.008Z,91.70
2022-09-16T02:13:00.095Z,91.70
2022-09-16T02:15:51.238Z,91.70
2022-09-16T02:18:43.363Z,91.80
2022-09-16T02:21:35.564Z,91.80
2022-09-16T02:24:27.160Z,91.80
2022-09-16T02:27:18.183Z,91.80
2022-09-16T02:30:10.506Z,91.80
2022-09-16T02:33:03.828Z,91.80
2022-09-16T02:35:55.382Z,91.80
2022-09-16T02:38:48.453Z,91.80
2022-09-16T02:41:40.667Z,91.80
2022-09-16T02:44:29.004Z,91.80
2022-09-16T02:47:25.185Z,91.80
2022-09-16T02:50:17.004Z,91.80
2022-09-16T02:53:11.366Z,91.80
2022-09-16T02:56:03.740Z,91.80
2022-09-16T02:58:54.141Z,91.80
2022-09-16T03:01:44.511Z,91.80
2022-09-16T03:04:32.841Z,91.80
2022-09-16T03:07:21.698Z,91.80
2022-09-16T03:10:11.586Z,91.80
2022-09-16T03:13:08.403Z,91.80
2022-09-16T03:16:05.599Z,91.80
2022-09-16T03:19:04.920Z,91.80
2022-09-16T03:21:59.888Z,91.80
2022-09-16T03:24:57.856Z,91.80
2022-09-16T03:27:51.542Z,91.80
2022-09-16T03:30:45.007Z,91.80
2022-09-16T03:33:40.784Z,91.80
2022-09-16T03:36:34.747Z,91.80
2022-09-16T03:39:23.716Z,91.80
2022-09-16T03:42:14.311Z,91.80
2022-09-16T03:45:02.587Z,91.90
2022-09-16T03:47:53.711Z,91.80
2022-09-16T03:50:43.600Z,91.80
2022-09-16T03:53:32.339Z,91.80
2022-09-16T03:56:20.882Z,91.80
2022-09-16T03:59:09.344Z,91.80
2022-09-16T04:01:57.692Z,91.80
2022-09-16T04:04:46.494Z,91.80
2022-09-16T04:07:36.190Z,91.80
2022-09-16T04:10:24.475Z,91.80
2022-09-16T04:13:12.441Z,91.80
2022-09-16T04:16:01.550Z,91.80
2022-09-16T04:18:49.850Z,91.80
2022-09-16T04:21:38.961Z,91.80
2022-09-16T04:24:28.612Z,91.80
2022-09-16T04:27:17.162Z,91.70
2022-09-16T04:30:05.738Z,91.80
2022-09-16T04:32:55.419Z,91.70
2022-09-16T04:35:43.325Z,91.70
2022-09-16T04:38:32.097Z,91.70
2022-09-16T04:41:23.448Z,91.80
2022-09-16T04:44:12.175Z,91.70
2022-09-16T04:47:00.067Z,91.80
2022-09-16T04:49:48.618Z,91.70
2022-09-16T04:52:36.827Z,91.70
2022-09-16T04:55:25.425Z,91.70
2022-09-16T04:58:15.466Z,91.80
2022-09-16T05:01:12.654Z,91.80
2022-09-16T05:04:02.530Z,91.80
2022-09-16T05:06:51.096Z,91.80
2022-09-16T05:09:39.396Z,91.80
2022-09-16T05:12:27.905Z,91.80
2022-09-16T05:15:17.310Z,91.80
2022-09-16T05:18:06.021Z,91.80
2022-09-16T05:20:58.912Z,91.80
2022-09-16T05:23:49.200Z,91.80
2022-09-16T05:26:38.887Z,91.80
2022-09-16T05:29:27.143Z,91.80
2022-09-16T05:32:16.714Z,91.80
2022-09-16T05:35:05.416Z,91.80
2022-09-16T05:37:53.278Z,91.70
2022-09-16T05:40:41.775Z,91.70
2022-09-16T05:43:29.710Z,91.70
2022-09-16T05:46:20.865Z,91.70
2022-09-16T05:49:11.400Z,91.80
2022-09-16T05:51:59.964Z,91.80
2022-09-16T05:54:48.626Z,91.80
2022-09-16T05:57:37.008Z,91.80
2022-09-16T06:00:25.161Z,91.80
2022-09-16T06:03:14.172Z,91.90
2022-09-16T06:06:05.202Z,91.80
2022-09-16T06:08:54.433Z,91.80
2022-09-16T06:11:44.951Z,91.80
2022-09-16T06:14:33.140Z,92.00
2022-09-16T06:17:21.432Z,91.80
2022-09-16T06:20:14.287Z,91.80
2022-09-16T06:23:04.526Z,91.70
2022-09-16T06:26:01.492Z,91.70
2022-09-16T06:28:49.898Z,91.70
2022-09-16T06:31:38.903Z,91.70
2022-09-16T06:34:28.553Z,91.70
2022-09-16T06:37:16.900Z,91.70
2022-09-16T06:40:07.655Z,91.70
2022-09-16T06:43:00.113Z,91.70
2022-09-16T06:45:48.237Z,91.80
2022-09-16T06:48:37.237Z,91.80
2022-09-16T06:51:26.666Z,91.80
2022-09-16T06:54:15.583Z,91.80
2022-09-16T06:57:06.604Z,91.80
2022-09-16T06:59:59.012Z,91.80
2022-09-16T07:02:46.902Z,91.80
2022-09-16T07:05:35.857Z,91.80
2022-09-16T07:08:24.888Z,91.80
2022-09-16T07:11:15.048Z,91.80
2022-09-16T07:14:05.104Z,91.80
2022-09-16T07:16:54.157Z,91.80
2022-09-16T07:19:42.921Z,91.90
2022-09-16T07:22:32.927Z,91.80
2022-09-16T07:25:20.896Z,91.90
2022-09-16T07:28:09.734Z,91.90
2022-09-16T07:31:02.593Z,91.90
2022-09-16T07:33:52.267Z,91.90
2022-09-16T07:36:42.624Z,91.90
2022-09-16T07:39:31.280Z,91.90
2022-09-16T07:42:19.768Z,91.90
2022-09-16T07:45:09.432Z,91.90
2022-09-16T07:47:58.719Z,91.90
2022-09-16T07:50:56.255Z,91.90
2022-09-16T07:53:45.649Z,91.90
2022-09-16T07:56:36.881Z,91.90
2022-09-16T07:59:25.232Z,92.00
2022-09-16T08:02:13.945Z,92.00
2022-09-16T08:05:03.793Z,92.00
2022-09-16T08:07:52.057Z,92.00
2022-09-16T08:10:40.536Z,92.00
2022-09-16T08:13:30.301Z,91.90
2022-09-16T08:16:20.263Z,91.90
2022-09-16T08:19:08.876Z,91.90
2022-09-16T08:21:58.419Z,91.90
2022-09-16T08:24:47.097Z,91.90
2022-09-16T08:27:36.528Z,91.90
2022-09-16T08:30:25.266Z,91.90
2022-09-16T08:33:13.866Z,91.90
2022-09-16T08:36:03.287Z,91.90
2022-09-16T08:38:56.094Z,91.90
2022-09-16T08:41:57.808Z,91.90
2022-09-16T08:44:57.073Z,91.90
2022-09-16T08:47:54.735Z,91.90
2022-09-16T08:50:45.444Z,91.90
2022-09-16T08:53:39.013Z,91.90
2022-09-16T08:56:32.256Z,91.90
2022-09-16T08:59:26.159Z,91.90
2022-09-16T09:02:37.969Z,91.90
2022-09-16T09:05:35.844Z,91.90
2022-09-16T09:08:39.832Z,91.80
2022-09-16T09:11:36.377Z,91.80
2022-09-16T09:14:35.393Z,91.90
2022-09-16T09:17:48.372Z,91.80
2022-09-16T09:20:45.650Z,91.90
2022-09-16T09:23:56.618Z,91.90
2022-09-16T09:26:50.218Z,91.90
2022-09-16T09:29:54.622Z,91.90
2022-09-16T09:32:58.597Z,91.80
2022-09-16T09:35:58.824Z,91.90
2022-09-16T09:39:14.997Z,91.80
2022-09-16T09:42:12.424Z,91.80
2022-09-16T09:45:05.035Z,91.80
2022-09-16T09:47:58.992Z,91.80
2022-09-16T09:50:48.755Z,91.80
2022-09-16T09:53:41.796Z,91.80
2022-09-16T09:56:34.625Z,91.80
2022-09-16T09:59:31.240Z,91.80
2022-09-16T10:02:22.564Z,91.80
2022-09-16T10:05:16.142Z,91.80
2022-09-16T10:08:22.247Z,91.80
2022-09-16T10:11:18.538Z,91.80
2022-09-16T10:14:06.648Z,91.80
2022-09-16T10:16:57.000Z,91.80
2022-09-16T10:19:53.793Z,91.80
2022-09-16T10:22:42.347Z,91.80
2022-09-16T10:25:33.189Z,92.10
2022-09-16T10:28:23.823Z,91.80
2022-09-16T10:31:12.824Z,91.80
2022-09-16T10:34:04.378Z,91.80
2022-09-16T10:37:01.797Z,91.80
2022-09-16T10:39:54.564Z,91.80
2022-09-16T10:42:48.553Z,91.80
2022-09-16T10:45:39.119Z,91.80
2022-09-16T10:48:30.504Z,91.80
2022-09-16T10:51:26.620Z,91.80
2022-09-16T10:54:28.178Z,91.80
2022-09-16T10:57:30.219Z,91.80
2022-09-16T11:00:20.609Z,91.80
2022-09-16T11:03:37.897Z,91.80
2022-09-16T11:06:37.489Z,91.80
2022-09-16T11:09:33.885Z,91.80
2022-09-16T11:12:39.755Z,91.80
2022-09-16T11:15:41.829Z,91.80
2022-09-16T11:18:43.242Z,91.80
2022-09-16T11:21:58.323Z,91.80
2022-09-16T11:24:58.723Z,91.80
2022-09-16T11:27:55.739Z,91.70
2022-09-16T11:30:54.677Z,91.70
2022-09-16T11:33:54.751Z,91.70
2022-09-16T11:36:55.406Z,91.70
2022-09-16T11:39:56.021Z,91.70
2022-09-16T11:42:48.153Z,91.60
2022-09-16T11:45:48.835Z,91.60
2022-09-16T11:48:54.987Z,91.60
2022-09-16T11:52:01.350Z,91.60
2022-09-16T11:55:08.328Z,91.50
2022-09-16T11:58:02.697Z,91.50
2022-09-16T12:00:53.097Z,91.50
2022-09-16T12:03:48.062Z,91.50
2022-09-16T12:06:44.201Z,91.50
2022-09-16T12:09:41.291Z,91.40
2022-09-16T12:12:37.354Z,91.40
2022-09-16T12:15:29.069Z,91.40
2022-09-16T12:18:21.401Z,91.50
2022-09-16T12:21:15.408Z,91.50
2022-09-16T12:24:10.591Z,91.40
2022-09-16T12:27:07.422Z,91.40
2022-09-16T12:30:01.143Z,91.40
2022-09-16T12:32:58.640Z,91.40
2022-09-16T12:35:56.498Z,91.40
2022-09-16T12:38:45.238Z,91.40
2022-09-16T12:41:51.828Z,91.40
2022-09-16T12:45:06.791Z,91.40
2022-09-16T12:48:22.730Z,91.40
2022-09-16T12:51:25.059Z,91.40
2022-09-16T12:54:40.871Z,91.40
2022-09-16T12:57:46.742Z,91.40
2022-09-16T13:00:40.641Z,91.40
2022-09-16T13:03:32.844Z,91.40
2022-09-16T13:06:26.927Z,91.40
2022-09-16T13:09:22.721Z,91.40
2022-09-16T13:15:33.850Z,91.40
2022-09-16T13:18:26.650Z,91.50
2022-09-16T13:21:26.338Z,91.50
2022-09-16T13:24:26.797Z,91.50
2022-09-16T13:27:34.653Z,91.50
2022-09-16T13:30:34.646Z,91.50
2022-09-16T13:33:28.917Z,91.50
2022-09-16T13:36:31.675Z,91.50
2022-09-16T13:39:31.449Z,91.50
2022-09-16T13:42:21.585Z,91.50
2022-09-16T13:45:40.116Z,91.50
2022-09-16T13:48:34.534Z,91.80
2022-09-16T13:51:24.721Z,91.50
2022-09-16T13:54:28.054Z,91.50
2022-09-16T13:57:32.174Z,91.50
2022-09-16T14:00:23.213Z,91.50
2022-09-16T14:03:39.641Z,91.60
2022-09-16T14:06:46.360Z,91.50
2022-09-16T14:09:48.572Z,91.50
2022-09-16T14:12:48.820Z,91.50
2022-09-16T14:15:39.336Z,91.50
2022-09-16T14:18:31.824Z,91.60
2022-09-16T14:21:24.584Z,91.50
2022-09-16T14:24:18.661Z,91.60
2022-09-16T14:27:18.478Z,91.60
2022-09-16T14:30:13.991Z,91.60
2022-09-16T14:33:03.840Z,91.60
2022-09-16T14:35:56.135Z,91.60
2022-09-16T14:38:49.171Z,91.60
2022-09-16T14:41:41.281Z,91.60
2022-09-16T14:44:35.229Z,91.60
2022-09-16T14:47:49.620Z,91.60
2022-09-16T14:50:41.236Z,91.60
2022-09-16T14:53:35.960Z,91.60
2022-09-16T14:56:27.551Z,91.60
2022-09-16T14:59:16.290Z,91.60
2022-09-16T15:02:09.660Z,91.60
2022-09-16T15:05:00.703Z,91.60
2022-09-16T15:08:12.335Z,91.60
2022-09-16T15:10:59.456Z,91.60
2022-09-16T15:13:50.141Z,91.60
2022-09-16T15:16:43.471Z,91.60
2022-09-16T15:19:35.531Z,91.60
2022-09-16T15:22:24.164Z,91.60
2022-09-16T15:25:21.831Z,91.60
2022-09-16T15:28:17.997Z,91.60
2022-09-16T15:31:08.257Z,91.60
2022-09-16T15:33:58.822Z,91.60
2022-09-16T15:36:49.173Z,91.60
2022-09-16T15:39:39.603Z,91.80
2022-09-16T15:42:28.000Z,91.60
2022-09-16T15:45:19.911Z,91.60
2022-09-16T15:48:16.151Z,91.60
2022-09-16T15:51:09.217Z,91.60
2022-09-16T15:54:03.628Z,91.80
2022-09-16T15:56:58.056Z,91.60
2022-09-16T15:59:57.681Z,91.80
2022-09-16T16:02:51.807Z,91.60
2022-09-16T16:05:52.521Z,91.60
2022-09-16T16:08:44.479Z,91.60
2022-09-16T16:11:33.339Z,91.60
2022-09-16T16:14:22.273Z,91.60
2022-09-16T16:17:14.714Z,91.50
2022-09-16T16:20:03.269Z,91.50
2022-09-16T16:22:53.933Z,91.60
2022-09-16T16:25:41.836Z,91.60
2022-09-16T16:28:30.371Z,91.50
2022-09-16T16:31:19.808Z,91.60
2022-09-16T16:34:08.264Z,91.60
2022-09-16T16:36:57.025Z,91.60
2022-09-16T16:39:46.979Z,91.50
2022-09-16T16:42:35.932Z,91.50
2022-09-16T16:45:24.449Z,91.50
2022-09-16T16:48:12.319Z,91.50
2022-09-16T16:51:03.811Z,91.50
2022-09-16T16:53:53.137Z,91.50
2022-09-16T16:56:43.128Z,91.50
2022-09-16T16:59:32.104Z,91.60
2022-09-16T17:02:20.977Z,91.60
2022-09-16T17:05:10.268Z,91.50
2022-09-16T17:07:58.480Z,91.60
2022-09-16T17:10:46.872Z,91.60
2022-09-16T17:13:36.990Z,91.60
2022-09-16T17:16:26.177Z,91.60
2022-09-16T17:19:14.902Z,91.60
2022-09-16T17:22:03.747Z,91.60
2022-09-16T17:24:52.781Z,91.60
2022-09-16T17:27:40.804Z,91.60
2022-09-16T17:30:30.811Z,91.60
2022-09-16T17:33:18.850Z,91.60
2022-09-16T17:36:09.541Z,91.70
2022-09-16T17:38:58.647Z,91.60
2022-09-16T17:41:49.116Z,91.60
2022-09-16T17:44:37.483Z,91.70
2022-09-16T17:47:27.344Z,91.70
2022-09-16T17:50:22.733Z,91.70
2022-09-16T17:53:11.466Z,91.70
2022-09-16T17:56:09.405Z,91.70
2022-09-16T17:58:58.228Z,91.70
2022-09-16T18:01:46.647Z,91.70
2022-09-16T18:04:36.657Z,91.80
2022-09-16T18:07:24.592Z,91.80
2022-09-16T18:10:13.026Z,91.80
2022-09-16T18:13:00.909Z,91.80
2022-09-16T18:15:49.419Z,91.80
2022-09-16T18:18:39.306Z,91.80
2022-09-16T18:21:30.404Z,91.80
2022-09-16T18:24:19.627Z,91.80
2022-09-16T18:27:08.043Z,91.80
2022-09-16T18:29:56.048Z,91.80
2022-09-16T18:32:44.843Z,91.80
2022-09-16T18:35:37.101Z,91.80
2022-09-16T18:38:26.979Z,91.80
2022-09-16T18:41:18.120Z,91.80
2022-09-16T18:44:09.148Z,91.80
2022-09-16T18:46:57.476Z,91.80
2022-09-16T18:49:46.241Z,91.80
2022-09-16T18:52:34.471Z,91.80
2022-09-16T18:55:24.435Z,91.80
2022-09-16T18:58:12.493Z,91.80
2022-09-16T19:01:09.794Z,91.80
2022-09-16T19:04:00.952Z,91.80
2022-09-16T19:06:51.733Z,91.80
2022-09-16T19:09:41.070Z,91.80
2022-09-16T19:12:31.026Z,91.80
2022-09-16T19:15:20.466Z,91.80
2022-09-16T19:18:09.068Z,91.80
2022-09-16T19:20:57.446Z,91.80
2022-09-16T19:23:47.483Z,91.80
2022-09-16T19:26:37.373Z,91.80
2022-09-16T19:29:27.580Z,91.80
2022-09-16T19:32:16.075Z,91.80
2022-09-16T19:35:04.787Z,91.80
2022-09-16T19:37:53.447Z,91.80
2022-09-16T19:40:41.997Z,91.80
2022-09-16T19:43:30.810Z,91.80
2022-09-16T19:46:20.448Z,91.80
2022-09-16T19:49:08.754Z,91.80
2022-09-16T19:51:57.091Z,91.80
2022-09-16T19:54:45.650Z,91.80
2022-09-16T19:57:34.044Z,91.80
2022-09-16T20:00:29.412Z,91.80
2022-09-16T20:03:32.659Z,91.80
2022-09-16T20:06:22.929Z,91.80
2022-09-16T20:09:14.341Z,91.80
2022-09-16T20:12:02.551Z,91.90
2022-09-16T20:14:51.007Z,91.80
2022-09-16T20:17:39.592Z,91.90
2022-09-16T20:20:30.357Z,91.90
2022-09-16T20:23:18.876Z,91.90
2022-09-16T20:26:08.839Z,91.90
2022-09-16T20:28:57.462Z,91.90
2022-09-16T20:31:46.262Z,91.90
2022-09-16T20:34:34.870Z,91.90
2022-09-16T20:37:24.992Z,91.90
2022-09-16T20:40:13.354Z,92.20
2022-09-16T20:43:01.715Z,91.90
2022-09-16T20:45:50.254Z,91.90
2022-09-16T20:48:38.849Z,91.90
2022-09-16T20:51:29.128Z,91.90
2022-09-16T20:54:19.498Z,91.90
2022-09-16T20:57:08.571Z,91.90
2022-09-16T20:59:56.883Z,91.90
2022-09-16T21:02:44.851Z,92.00
2022-09-16T21:05:33.575Z,92.00
2022-09-16T21:08:21.934Z,92.00
2022-09-16T21:11:13.802Z,92.00
2022-09-16T21:14:02.892Z,92.00
2022-09-16T21:16:52.635Z,92.00
2022-09-16T21:19:40.666Z,91.90
2022-09-16T21:22:29.647Z,91.90
2022-09-16T21:25:18.200Z,92.00
2022-09-16T21:28:08.842Z,92.00
2022-09-16T21:31:01.975Z,92.00
2022-09-16T21:33:52.049Z,92.00
2022-09-16T21:36:40.448Z,92.00
2022-09-16T21:39:29.070Z,92.00
2022-09-16T21:42:17.296Z,92.00
2022-09-16T21:45:08.814Z,92.20
2022-09-16T21:47:57.434Z,92.20
2022-09-16T21:50:45.880Z,92.00
2022-09-16T21:53:34.547Z,92.00
2022-09-16T21:56:24.590Z,92.00
2022-09-16T21:59:12.864Z,92.00
2022-09-16T22:02:04.029Z,92.00
2022-09-16T22:04:52.380Z,92.00
2022-09-16T22:07:40.977Z,92.00
2022-09-16T22:10:30.122Z,92.00
2022-09-16T22:13:18.812Z,92.00
2022-09-16T22:16:08.264Z,92.00
2022-09-16T22:19:00.605Z,92.00
2022-09-16T22:21:50.561Z,92.00
2022-09-16T22:24:39.487Z,92.00
2022-09-16T22:27:29.234Z,92.00
2022-09-16T22:30:19.126Z,92.00
2022-09-16T22:33:07.391Z,92.00
2022-09-16T22:35:56.970Z,92.00
2022-09-16T22:38:47.237Z,92.00
2022-09-16T22:41:36.349Z,92.00
2022-09-16T22:44:24.402Z,92.00
2022-09-16T22:47:12.403Z,92.00
2022-09-16T22:50:00.297Z,92.00
2022-09-16T22:52:49.996Z,92.00
2022-09-16T22:55:38.302Z,92.00
2022-09-16T22:58:27.714Z,92.00
2022-09-16T23:01:18.321Z,92.00
2022-09-16T23:04:08.687Z,92.00
2022-09-16T23:06:57.012Z,92.00
2022-09-16T23:09:47.802Z,92.00
2022-09-16T23:12:36.847Z,92.00
2022-09-16T23:15:27.068Z,92.00
2022-09-16T23:18:14.965Z,92.00
2022-09-16T23:21:05.417Z,92.00
2022-09-16T23:23:55.291Z,92.00
2022-09-16T23:26:46.032Z,92.00
2022-09-16T23:29:34.572Z,92.00
2022-09-16T23:32:22.942Z,92.00
2022-09-16T23:35:11.408Z,92.10
2022-09-16T23:37:59.536Z,92.00
2022-09-16T23:40:48.308Z,92.00
2022-09-16T23:43:38.497Z,92.00
2022-09-16T23:46:28.855Z,92.00
2022-09-16T23:49:20.337Z,92.10
2022-09-16T23:52:08.884Z,92.10
2022-09-16T23:54:57.233Z,92.10
2022-09-16T23:57:45.319Z,92.10
